sensor_id;sensor_type;location;lat;lon;timestamp;pressure;altitude;pressure_sealevel;temperature;humidity
10992;BME280;5549;47.028;15.514;2023-12-28T00:00:12;97042.31;;;6.92;72.07
10992;BME280;5549;47.028;15.514;2023-12-28T00:02:40;97031.03;;;6.91;71.44
10992;BME280;5549;47.028;15.514;2023-12-28T00:05:08;97037.66;;;6.83;71.71
10992;BME280;5549;47.028;15.514;2023-12-28T00:07:35;97031.88;;;6.63;73.07
10992;BME280;5549;47.028;15.514;2023-12-28T00:10:04;97025.81;;;6.63;73.01
10992;BME280;5549;47.028;15.514;2023-12-28T00:12:35;97039.97;;;6.44;73.98
10992;BME280;5549;47.028;15.514;2023-12-28T00:15:05;97031.13;;;6.33;74.90
10992;BME280;5549;47.028;15.514;2023-12-28T00:17:36;97032.22;;;6.29;74.49
10992;BME280;5549;47.028;15.514;2023-12-28T00:20:12;97033.94;;;6.00;74.39
10992;BME280;5549;47.028;15.514;2023-12-28T00:22:41;97020.25;;;5.96;75.03
10992;BME280;5549;47.028;15.514;2023-12-28T00:25:12;97018.06;;;5.89;74.92
10992;BME280;5549;47.028;15.514;2023-12-28T00:27:41;97015.22;;;5.93;74.45
10992;BME280;5549;47.028;15.514;2023-12-28T00:30:09;97016.72;;;5.97;74.59
10992;BME280;5549;47.028;15.514;2023-12-28T00:32:37;97019.03;;;6.02;73.96
10992;BME280;5549;47.028;15.514;2023-12-28T00:35:05;97029.69;;;6.13;73.68
10992;BME280;5549;47.028;15.514;2023-12-28T00:37:35;97029.22;;;6.21;72.81
10992;BME280;5549;47.028;15.514;2023-12-28T00:40:06;97029.06;;;6.24;72.37
10992;BME280;5549;47.028;15.514;2023-12-28T00:42:34;97032.50;;;6.24;72.19
10992;BME280;5549;47.028;15.514;2023-12-28T00:45:05;97034.00;;;6.28;70.75
10992;BME280;5549;47.028;15.514;2023-12-28T00:47:33;97035.09;;;6.24;70.38
10992;BME280;5549;47.028;15.514;2023-12-28T00:50:03;97032.50;;;6.24;70.95
10992;BME280;5549;47.028;15.514;2023-12-28T00:52:30;97033.25;;;6.26;70.26
10992;BME280;5549;47.028;15.514;2023-12-28T00:54:58;97031.22;;;6.31;69.80
10992;BME280;5549;47.028;15.514;2023-12-28T00:57:26;97030.19;;;6.34;70.06
10992;BME280;5549;47.028;15.514;2023-12-28T00:59:53;97029.25;;;6.35;71.08
10992;BME280;5549;47.028;15.514;2023-12-28T01:02:22;97033.44;;;6.37;71.01
10992;BME280;5549;47.028;15.514;2023-12-28T01:04:50;97034.28;;;6.38;70.82
10992;BME280;5549;47.028;15.514;2023-12-28T01:07:17;97035.31;;;6.35;70.90
10992;BME280;5549;47.028;15.514;2023-12-28T01:09:45;97027.56;;;6.34;71.64
10992;BME280;5549;47.028;15.514;2023-12-28T01:12:13;97030.53;;;6.28;71.28
10992;BME280;5549;47.028;15.514;2023-12-28T01:14:40;97033.34;;;6.25;70.64
10992;BME280;5549;47.028;15.514;2023-12-28T01:17:08;97026.25;;;6.27;70.99
10992;BME280;5549;47.028;15.514;2023-12-28T01:19:37;97026.06;;;6.30;70.80
10992;BME280;5549;47.028;15.514;2023-12-28T01:22:05;97022.34;;;6.34;71.78
10992;BME280;5549;47.028;15.514;2023-12-28T01:24:32;97026.63;;;6.35;72.31
10992;BME280;5549;47.028;15.514;2023-12-28T01:27:00;97022.19;;;6.37;72.29
10992;BME280;5549;47.028;15.514;2023-12-28T01:29:28;97030.56;;;6.42;72.93
10992;BME280;5549;47.028;15.514;2023-12-28T01:31:55;97030.47;;;6.43;72.92
10992;BME280;5549;47.028;15.514;2023-12-28T01:34:23;97021.25;;;6.38;73.20
10992;BME280;5549;47.028;15.514;2023-12-28T01:36:52;97020.31;;;6.39;73.71
10992;BME280;5549;47.028;15.514;2023-12-28T01:39:19;97025.34;;;6.42;73.15
10992;BME280;5549;47.028;15.514;2023-12-28T01:41:47;97016.59;;;6.43;73.17
10992;BME280;5549;47.028;15.514;2023-12-28T01:44:14;97018.25;;;6.44;72.66
10992;BME280;5549;47.028;15.514;2023-12-28T01:46:42;97011.38;;;6.43;72.91
10992;BME280;5549;47.028;15.514;2023-12-28T01:49:10;97014.91;;;6.42;72.00
10992;BME280;5549;47.028;15.514;2023-12-28T01:51:38;97009.69;;;6.42;71.26
10992;BME280;5549;47.028;15.514;2023-12-28T01:54:07;97010.06;;;6.36;71.89
10992;BME280;5549;47.028;15.514;2023-12-28T01:56:35;97014.44;;;6.35;71.98
10992;BME280;5549;47.028;15.514;2023-12-28T01:59:03;97009.50;;;6.31;72.33
10992;BME280;5549;47.028;15.514;2023-12-28T02:01:30;97006.06;;;6.30;72.32
10992;BME280;5549;47.028;15.514;2023-12-28T02:03:58;97015.81;;;6.27;73.45
10992;BME280;5549;47.028;15.514;2023-12-28T02:06:25;97008.47;;;6.19;73.60
10992;BME280;5549;47.028;15.514;2023-12-28T02:08:55;97009.28;;;6.05;74.52
10992;BME280;5549;47.028;15.514;2023-12-28T02:11:24;97013.75;;;6.03;74.03
10992;BME280;5549;47.028;15.514;2023-12-28T02:13:52;97002.56;;;6.01;74.01
10992;BME280;5549;47.028;15.514;2023-12-28T02:16:25;96987.94;;;5.99;73.42
10992;BME280;5549;47.028;15.514;2023-12-28T02:18:58;96981.31;;;5.93;73.30
10992;BME280;5549;47.028;15.514;2023-12-28T02:21:28;96980.72;;;5.88;73.28
10992;BME280;5549;47.028;15.514;2023-12-28T02:23:58;96978.13;;;5.88;73.12
10992;BME280;5549;47.028;15.514;2023-12-28T02:26:27;96965.09;;;5.88;72.91
10992;BME280;5549;47.028;15.514;2023-12-28T02:28:54;96961.50;;;5.91;72.63
10992;BME280;5549;47.028;15.514;2023-12-28T02:31:28;96958.88;;;5.91;72.16
10992;BME280;5549;47.028;15.514;2023-12-28T02:34:03;96965.25;;;5.85;72.06
10992;BME280;5549;47.028;15.514;2023-12-28T02:36:35;96968.88;;;5.83;72.37
10992;BME280;5549;47.028;15.514;2023-12-28T02:39:04;96964.50;;;5.83;72.67
10992;BME280;5549;47.028;15.514;2023-12-28T02:41:34;96961.16;;;5.81;72.54
10992;BME280;5549;47.028;15.514;2023-12-28T02:44:01;96958.91;;;5.75;71.79
10992;BME280;5549;47.028;15.514;2023-12-28T02:46:30;96957.16;;;5.75;72.11
10992;BME280;5549;47.028;15.514;2023-12-28T02:48:57;96955.19;;;5.79;71.01
10992;BME280;5549;47.028;15.514;2023-12-28T02:51:25;96954.53;;;5.75;72.04
10992;BME280;5549;47.028;15.514;2023-12-28T02:53:53;96954.44;;;5.77;71.78
10992;BME280;5549;47.028;15.514;2023-12-28T02:56:21;96938.63;;;5.80;72.49
10992;BME280;5549;47.028;15.514;2023-12-28T02:58:49;96935.19;;;5.79;72.20
10992;BME280;5549;47.028;15.514;2023-12-28T03:01:17;96932.50;;;5.81;72.32
10992;BME280;5549;47.028;15.514;2023-12-28T03:03:44;96934.91;;;5.84;72.28
10992;BME280;5549;47.028;15.514;2023-12-28T03:06:12;96935.75;;;5.85;71.83
10992;BME280;5549;47.028;15.514;2023-12-28T03:08:40;96931.47;;;5.84;71.04
10992;BME280;5549;47.028;15.514;2023-12-28T03:11:09;96925.41;;;5.83;71.27
10992;BME280;5549;47.028;15.514;2023-12-28T03:13:39;96931.38;;;5.85;70.54
10992;BME280;5549;47.028;15.514;2023-12-28T03:16:09;96927.00;;;5.86;70.73
10992;BME280;5549;47.028;15.514;2023-12-28T03:18:36;96917.59;;;5.83;70.77
10992;BME280;5549;47.028;15.514;2023-12-28T03:21:05;96913.22;;;5.84;70.98
10992;BME280;5549;47.028;15.514;2023-12-28T03:23:32;96921.50;;;5.76;71.35
10992;BME280;5549;47.028;15.514;2023-12-28T03:26:01;96925.78;;;5.77;71.55
10992;BME280;5549;47.028;15.514;2023-12-28T03:28:28;96914.72;;;5.73;71.43
10992;BME280;5549;47.028;15.514;2023-12-28T03:30:56;96907.34;;;5.66;71.58
10992;BME280;5549;47.028;15.514;2023-12-28T03:33:26;96907.34;;;5.66;71.69
10992;BME280;5549;47.028;15.514;2023-12-28T03:35:54;96901.19;;;5.67;70.89
10992;BME280;5549;47.028;15.514;2023-12-28T03:38:23;96889.09;;;5.66;72.17
10992;BME280;5549;47.028;15.514;2023-12-28T03:40:50;96888.72;;;5.58;71.82
10992;BME280;5549;47.028;15.514;2023-12-28T03:43:18;96888.53;;;5.61;72.15
10992;BME280;5549;47.028;15.514;2023-12-28T03:45:46;96884.25;;;5.60;71.89
10992;BME280;5549;47.028;15.514;2023-12-28T03:48:14;96882.56;;;5.59;70.96
10992;BME280;5549;47.028;15.514;2023-12-28T03:50:43;96882.50;;;5.60;71.27
10992;BME280;5549;47.028;15.514;2023-12-28T03:53:10;96889.28;;;5.63;70.71
10992;BME280;5549;47.028;15.514;2023-12-28T03:55:39;96891.22;;;5.59;70.45
10992;BME280;5549;47.028;15.514;2023-12-28T03:58:10;96882.94;;;5.53;71.18
10992;BME280;5549;47.028;15.514;2023-12-28T04:00:37;96892.69;;;5.49;71.04
10992;BME280;5549;47.028;15.514;2023-12-28T04:03:05;96889.44;;;5.45;71.13
10992;BME280;5549;47.028;15.514;2023-12-28T04:05:32;96882.75;;;4.96;72.89
10992;BME280;5549;47.028;15.514;2023-12-28T04:08:01;96882.44;;;4.70;73.60
10992;BME280;5549;47.028;15.514;2023-12-28T04:10:31;96890.16;;;4.72;74.28
10992;BME280;5549;47.028;15.514;2023-12-28T04:12:59;96878.94;;;5.01;72.77
10992;BME280;5549;47.028;15.514;2023-12-28T04:15:27;96875.34;;;5.04;72.52
10992;BME280;5549;47.028;15.514;2023-12-28T04:17:54;96864.75;;;5.07;72.61
10992;BME280;5549;47.028;15.514;2023-12-28T04:20:22;96858.34;;;5.12;72.68
10992;BME280;5549;47.028;15.514;2023-12-28T04:22:50;96862.53;;;5.15;71.93
10992;BME280;5549;47.028;15.514;2023-12-28T04:25:18;96857.03;;;5.05;73.07
10992;BME280;5549;47.028;15.514;2023-12-28T04:27:46;96861.88;;;5.11;73.00
10992;BME280;5549;47.028;15.514;2023-12-28T04:30:14;96862.53;;;5.15;72.68
10992;BME280;5549;47.028;15.514;2023-12-28T04:32:42;96855.47;;;5.17;72.80
10992;BME280;5549;47.028;15.514;2023-12-28T04:35:09;96859.63;;;5.21;72.48
10992;BME280;5549;47.028;15.514;2023-12-28T04:37:37;96867.44;;;5.21;72.41
10992;BME280;5549;47.028;15.514;2023-12-28T04:40:05;96865.97;;;5.15;71.25
10992;BME280;5549;47.028;15.514;2023-12-28T04:42:34;96865.75;;;5.20;71.03
10992;BME280;5549;47.028;15.514;2023-12-28T04:45:02;96883.97;;;5.20;70.08
10992;BME280;5549;47.028;15.514;2023-12-28T04:47:30;96878.69;;;5.22;70.24
10992;BME280;5549;47.028;15.514;2023-12-28T04:49:57;96874.53;;;5.18;69.19
10992;BME280;5549;47.028;15.514;2023-12-28T04:52:27;96879.59;;;5.21;69.55
10992;BME280;5549;47.028;15.514;2023-12-28T04:54:55;96882.25;;;5.19;68.47
10992;BME280;5549;47.028;15.514;2023-12-28T04:57:22;96872.03;;;5.16;68.49
10992;BME280;5549;47.028;15.514;2023-12-28T04:59:53;96870.97;;;5.04;68.69
10992;BME280;5549;47.028;15.514;2023-12-28T05:02:20;96880.75;;;4.85;70.51
10992;BME280;5549;47.028;15.514;2023-12-28T05:04:48;96877.31;;;4.84;70.80
10992;BME280;5549;47.028;15.514;2023-12-28T05:07:16;96875.53;;;4.85;70.30
10992;BME280;5549;47.028;15.514;2023-12-28T05:09:43;96873.53;;;4.74;70.60
10992;BME280;5549;47.028;15.514;2023-12-28T05:12:11;96878.56;;;4.77;70.29
10992;BME280;5549;47.028;15.514;2023-12-28T05:14:38;96877.06;;;4.73;69.41
10992;BME280;5549;47.028;15.514;2023-12-28T05:17:07;96882.19;;;4.59;68.95
10992;BME280;5549;47.028;15.514;2023-12-28T05:19:34;96884.44;;;4.65;68.21
10992;BME280;5549;47.028;15.514;2023-12-28T05:22:02;96876.06;;;4.76;68.03
10992;BME280;5549;47.028;15.514;2023-12-28T05:24:32;96877.97;;;4.88;67.60
10992;BME280;5549;47.028;15.514;2023-12-28T05:27:00;96880.47;;;4.90;67.14
10992;BME280;5549;47.028;15.514;2023-12-28T05:29:27;96873.84;;;5.00;66.02
10992;BME280;5549;47.028;15.514;2023-12-28T05:31:59;96874.59;;;5.02;65.88
10992;BME280;5549;47.028;15.514;2023-12-28T05:34:28;96868.63;;;5.00;66.08
10992;BME280;5549;47.028;15.514;2023-12-28T05:36:55;96881.63;;;5.00;65.71
10992;BME280;5549;47.028;15.514;2023-12-28T05:39:23;96870.81;;;4.92;66.28
10992;BME280;5549;47.028;15.514;2023-12-28T05:41:50;96877.53;;;4.96;66.20
10992;BME280;5549;47.028;15.514;2023-12-28T05:44:18;96870.13;;;5.04;65.75
10992;BME280;5549;47.028;15.514;2023-12-28T05:46:49;96872.97;;;5.15;65.84
10992;BME280;5549;47.028;15.514;2023-12-28T05:49:18;96881.50;;;5.17;65.76
10992;BME280;5549;47.028;15.514;2023-12-28T05:51:49;96881.88;;;5.11;65.48
10992;BME280;5549;47.028;15.514;2023-12-28T05:54:17;96876.59;;;4.97;66.00
10992;BME280;5549;47.028;15.514;2023-12-28T05:56:44;96883.22;;;5.02;66.01
10992;BME280;5549;47.028;15.514;2023-12-28T05:59:12;96878.50;;;5.09;66.41
10992;BME280;5549;47.028;15.514;2023-12-28T06:01:43;96873.47;;;5.06;65.93
10992;BME280;5549;47.028;15.514;2023-12-28T06:04:11;96880.22;;;4.94;65.96
10992;BME280;5549;47.028;15.514;2023-12-28T06:06:39;96884.75;;;4.91;65.75
10992;BME280;5549;47.028;15.514;2023-12-28T06:09:08;96881.41;;;4.89;65.62
10992;BME280;5549;47.028;15.514;2023-12-28T06:11:35;96888.47;;;4.87;65.36
10992;BME280;5549;47.028;15.514;2023-12-28T06:14:03;96874.38;;;4.75;65.87
10992;BME280;5549;47.028;15.514;2023-12-28T06:16:32;96889.16;;;4.74;65.98
10992;BME280;5549;47.028;15.514;2023-12-28T06:19:00;96877.22;;;4.70;66.08
10992;BME280;5549;47.028;15.514;2023-12-28T06:21:28;96880.75;;;4.69;66.32
10992;BME280;5549;47.028;15.514;2023-12-28T06:23:56;96889.31;;;4.71;66.00
10992;BME280;5549;47.028;15.514;2023-12-28T06:26:25;96891.56;;;4.77;65.88
10992;BME280;5549;47.028;15.514;2023-12-28T06:28:55;96895.78;;;4.80;65.85
10992;BME280;5549;47.028;15.514;2023-12-28T06:31:23;96900.72;;;4.84;65.90
10992;BME280;5549;47.028;15.514;2023-12-28T06:33:50;96885.69;;;4.90;65.81
10992;BME280;5549;47.028;15.514;2023-12-28T06:36:20;96888.47;;;4.87;65.78
10992;BME280;5549;47.028;15.514;2023-12-28T06:38:48;96895.84;;;4.78;65.42
10992;BME280;5549;47.028;15.514;2023-12-28T06:41:15;96900.31;;;4.76;65.94
10992;BME280;5549;47.028;15.514;2023-12-28T06:43:44;96897.88;;;4.73;65.51
10992;BME280;5549;47.028;15.514;2023-12-28T06:46:12;96908.44;;;4.70;65.93
10992;BME280;5549;47.028;15.514;2023-12-28T06:48:39;96900.81;;;4.67;65.74
10992;BME280;5549;47.028;15.514;2023-12-28T06:51:18;96898.38;;;4.80;65.99
10992;BME280;5549;47.028;15.514;2023-12-28T06:53:46;96897.53;;;4.79;65.37
10992;BME280;5549;47.028;15.514;2023-12-28T06:56:15;96890.38;;;4.99;64.74
10992;BME280;5549;47.028;15.514;2023-12-28T06:58:44;96906.41;;;5.07;64.29
10992;BME280;5549;47.028;15.514;2023-12-28T07:01:11;96901.09;;;5.24;63.26
10992;BME280;5549;47.028;15.514;2023-12-28T07:03:39;96903.59;;;5.56;64.34
10992;BME280;5549;47.028;15.514;2023-12-28T07:06:07;96900.31;;;6.39;73.97
10992;BME280;5549;47.028;15.514;2023-12-28T07:08:35;96897.06;;;7.18;74.40
10992;BME280;5549;47.028;15.514;2023-12-28T07:11:02;96896.22;;;7.82;72.45
10992;BME280;5549;47.028;15.514;2023-12-28T07:13:30;96887.00;;;8.27;66.85
10992;BME280;5549;47.028;15.514;2023-12-28T07:15:59;96886.56;;;8.59;63.61
10992;BME280;5549;47.028;15.514;2023-12-28T07:18:28;96890.25;;;8.93;62.25
10992;BME280;5549;47.028;15.514;2023-12-28T07:20:55;96891.66;;;9.10;59.82
10992;BME280;5549;47.028;15.514;2023-12-28T07:23:23;96884.69;;;9.21;58.59
10992;BME280;5549;47.028;15.514;2023-12-28T07:25:51;96888.56;;;9.40;58.75
10992;BME280;5549;47.028;15.514;2023-12-28T07:28:18;96898.88;;;9.65;57.71
10992;BME280;5549;47.028;15.514;2023-12-28T07:30:47;96896.09;;;9.90;57.45
10992;BME280;5549;47.028;15.514;2023-12-28T07:33:15;96898.97;;;10.10;55.81
10992;BME280;5549;47.028;15.514;2023-12-28T07:35:43;96907.31;;;10.15;55.03
10992;BME280;5549;47.028;15.514;2023-12-28T07:38:13;96897.59;;;10.39;54.92
10992;BME280;5549;47.028;15.514;2023-12-28T07:40:41;96899.16;;;10.42;54.32
10992;BME280;5549;47.028;15.514;2023-12-28T07:43:09;96905.13;;;10.55;54.46
10992;BME280;5549;47.028;15.514;2023-12-28T07:45:36;96910.50;;;10.65;54.04
10992;BME280;5549;47.028;15.514;2023-12-28T07:48:06;96896.28;;;10.78;53.80
10992;BME280;5549;47.028;15.514;2023-12-28T07:50:35;96899.94;;;10.98;53.78
10992;BME280;5549;47.028;15.514;2023-12-28T07:53:03;96900.63;;;11.11;53.40
10992;BME280;5549;47.028;15.514;2023-12-28T07:55:31;96901.00;;;11.39;52.73
10992;BME280;5549;47.028;15.514;2023-12-28T07:57:59;96896.22;;;11.65;51.85
10992;BME280;5549;47.028;15.514;2023-12-28T08:00:26;96895.03;;;11.89;50.87
10992;BME280;5549;47.028;15.514;2023-12-28T08:02:54;96891.94;;;12.05;49.55
10992;BME280;5549;47.028;15.514;2023-12-28T08:05:21;96890.38;;;12.14;49.13
10992;BME280;5549;47.028;15.514;2023-12-28T08:07:50;96889.19;;;12.28;50.02
10992;BME280;5549;47.028;15.514;2023-12-28T08:10:18;96892.63;;;12.49;49.12
10992;BME280;5549;47.028;15.514;2023-12-28T08:12:46;96899.31;;;12.63;48.71
10992;BME280;5549;47.028;15.514;2023-12-28T08:15:14;96894.38;;;12.79;47.67
10992;BME280;5549;47.028;15.514;2023-12-28T08:17:41;96900.38;;;12.91;45.16
10992;BME280;5549;47.028;15.514;2023-12-28T08:20:09;96902.44;;;12.87;45.18
10992;BME280;5549;47.028;15.514;2023-12-28T08:22:39;96898.56;;;12.91;45.38
10992;BME280;5549;47.028;15.514;2023-12-28T08:25:08;96902.19;;;12.90;44.66
10992;BME280;5549;47.028;15.514;2023-12-28T08:27:36;96900.41;;;13.00;45.38
10992;BME280;5549;47.028;15.514;2023-12-28T08:30:06;96909.28;;;12.99;45.08
10992;BME280;5549;47.028;15.514;2023-12-28T08:32:33;96909.09;;;12.81;44.28
10992;BME280;5549;47.028;15.514;2023-12-28T08:35:01;96905.47;;;12.73;44.36
10992;BME280;5549;47.028;15.514;2023-12-28T08:37:30;96915.13;;;12.63;44.85
10992;BME280;5549;47.028;15.514;2023-12-28T08:39:58;96917.84;;;12.51;44.74
10992;BME280;5549;47.028;15.514;2023-12-28T08:42:27;96920.63;;;12.50;46.49
10992;BME280;5549;47.028;15.514;2023-12-28T08:44:55;96917.41;;;12.46;46.07
10992;BME280;5549;47.028;15.514;2023-12-28T08:47:22;96912.22;;;12.35;43.62
10992;BME280;5549;47.028;15.514;2023-12-28T08:49:50;96915.06;;;12.02;42.56
10992;BME280;5549;47.028;15.514;2023-12-28T08:52:18;96923.22;;;11.46;44.38
10992;BME280;5549;47.028;15.514;2023-12-28T08:54:46;96934.59;;;10.92;45.94
10992;BME280;5549;47.028;15.514;2023-12-28T08:57:13;96948.81;;;10.45;47.52
10992;BME280;5549;47.028;15.514;2023-12-28T08:59:42;96952.47;;;10.20;49.58
10992;BME280;5549;47.028;15.514;2023-12-28T09:02:10;96946.81;;;10.13;50.98
10992;BME280;5549;47.028;15.514;2023-12-28T09:04:37;96954.53;;;10.04;52.69
10992;BME280;5549;47.028;15.514;2023-12-28T09:07:05;96949.53;;;10.01;52.57
10992;BME280;5549;47.028;15.514;2023-12-28T09:09:33;96956.66;;;9.87;54.14
10992;BME280;5549;47.028;15.514;2023-12-28T09:12:00;96952.88;;;10.03;53.57
10992;BME280;5549;47.028;15.514;2023-12-28T09:14:28;96954.81;;;10.12;53.52
10992;BME280;5549;47.028;15.514;2023-12-28T09:16:57;96951.31;;;10.46;52.93
10992;BME280;5549;47.028;15.514;2023-12-28T09:19:24;96944.53;;;10.55;51.75
10992;BME280;5549;47.028;15.514;2023-12-28T09:21:52;96956.56;;;10.80;51.28
10992;BME280;5549;47.028;15.514;2023-12-28T09:24:19;96955.50;;;10.82;47.43
10992;BME280;5549;47.028;15.514;2023-12-28T09:26:49;96958.72;;;10.97;47.44
10992;BME280;5549;47.028;15.514;2023-12-28T09:29:17;96953.91;;;11.02;48.11
10992;BME280;5549;47.028;15.514;2023-12-28T09:31:46;96947.41;;;11.29;48.17
10992;BME280;5549;47.028;15.514;2023-12-28T09:34:15;96944.50;;;11.43;49.20
10992;BME280;5549;47.028;15.514;2023-12-28T09:36:43;96941.91;;;11.64;47.18
10992;BME280;5549;47.028;15.514;2023-12-28T09:39:10;96930.91;;;12.11;47.03
10992;BME280;5549;47.028;15.514;2023-12-28T09:41:42;96929.09;;;12.53;45.88
10992;BME280;5549;47.028;15.514;2023-12-28T09:44:12;96924.06;;;12.81;48.46
10992;BME280;5549;47.028;15.514;2023-12-28T09:46:42;96921.91;;;12.96;47.14
10992;BME280;5549;47.028;15.514;2023-12-28T09:49:11;96922.88;;;13.04;47.86
10992;BME280;5549;47.028;15.514;2023-12-28T09:51:42;96922.19;;;13.02;47.22
10992;BME280;5549;47.028;15.514;2023-12-28T09:54:09;96923.94;;;13.23;47.54
10992;BME280;5549;47.028;15.514;2023-12-28T09:56:37;96914.78;;;13.65;46.24
10992;BME280;5549;47.028;15.514;2023-12-28T09:59:06;96922.13;;;14.10;46.06
10992;BME280;5549;47.028;15.514;2023-12-28T10:01:36;96920.25;;;14.39;44.87
10992;BME280;5549;47.028;15.514;2023-12-28T10:04:04;96922.66;;;14.80;43.30
10992;BME280;5549;47.028;15.514;2023-12-28T10:06:31;96920.63;;;15.19;40.54
10992;BME280;5549;47.028;15.514;2023-12-28T10:09:00;96919.84;;;15.08;38.55
10992;BME280;5549;47.028;15.514;2023-12-28T10:11:28;96910.59;;;15.40;39.77
10992;BME280;5549;47.028;15.514;2023-12-28T10:13:56;96904.16;;;15.70;39.59
10992;BME280;5549;47.028;15.514;2023-12-28T10:16:24;96910.00;;;16.17;39.18
10992;BME280;5549;47.028;15.514;2023-12-28T10:18:52;96904.06;;;15.97;38.95
10992;BME280;5549;47.028;15.514;2023-12-28T10:21:20;96900.16;;;16.10;41.41
10992;BME280;5549;47.028;15.514;2023-12-28T10:23:47;96900.69;;;16.39;41.32
10992;BME280;5549;47.028;15.514;2023-12-28T10:26:18;96894.75;;;16.71;39.44
10992;BME280;5549;47.028;15.514;2023-12-28T10:28:45;96892.81;;;16.81;38.69
10992;BME280;5549;47.028;15.514;2023-12-28T10:31:15;96881.44;;;16.97;37.62
10992;BME280;5549;47.028;15.514;2023-12-28T10:33:43;96882.81;;;17.17;38.25
10992;BME280;5549;47.028;15.514;2023-12-28T10:36:15;96880.59;;;17.47;37.66
10992;BME280;5549;47.028;15.514;2023-12-28T10:38:44;96879.81;;;17.71;37.04
10992;BME280;5549;47.028;15.514;2023-12-28T10:41:15;96890.59;;;17.77;36.24
10992;BME280;5549;47.028;15.514;2023-12-28T10:43:48;96892.44;;;18.01;36.21
10992;BME280;5549;47.028;15.514;2023-12-28T10:46:25;96890.56;;;18.34;34.37
10992;BME280;5549;47.028;15.514;2023-12-28T10:48:59;96884.38;;;18.50;33.56
10992;BME280;5549;47.028;15.514;2023-12-28T10:51:28;96881.88;;;18.65;32.95
10992;BME280;5549;47.028;15.514;2023-12-28T10:54:06;96880.66;;;18.75;32.98
10992;BME280;5549;47.028;15.514;2023-12-28T10:56:46;96879.00;;;18.74;32.14
10992;BME280;5549;47.028;15.514;2023-12-28T10:59:23;96874.78;;;18.88;33.38
10992;BME280;5549;47.028;15.514;2023-12-28T11:01:52;96867.72;;;19.03;32.13
10992;BME280;5549;47.028;15.514;2023-12-28T11:04:28;96876.59;;;18.96;32.28
10992;BME280;5549;47.028;15.514;2023-12-28T11:06:59;96875.94;;;18.94;32.70
10992;BME280;5549;47.028;15.514;2023-12-28T11:09:27;96875.91;;;19.02;33.11
10992;BME280;5549;47.028;15.514;2023-12-28T11:11:59;96873.41;;;19.00;31.13
10992;BME280;5549;47.028;15.514;2023-12-28T11:14:28;96873.41;;;19.00;31.85
10992;BME280;5549;47.028;15.514;2023-12-28T11:16:59;96868.84;;;19.17;32.43
10992;BME280;5549;47.028;15.514;2023-12-28T11:19:28;96864.97;;;19.28;32.71
10992;BME280;5549;47.028;15.514;2023-12-28T11:22:00;96860.84;;;19.48;30.96
10992;BME280;5549;47.028;15.514;2023-12-28T11:24:29;96867.38;;;19.06;31.16
10992;BME280;5549;47.028;15.514;2023-12-28T11:26:58;96872.06;;;18.57;31.33
10992;BME280;5549;47.028;15.514;2023-12-28T11:29:29;96868.03;;;18.77;31.81
10992;BME280;5549;47.028;15.514;2023-12-28T11:31:58;96870.03;;;18.59;31.92
10992;BME280;5549;47.028;15.514;2023-12-28T11:34:27;96863.81;;;18.36;32.52
10992;BME280;5549;47.028;15.514;2023-12-28T11:36:58;96863.47;;;18.39;33.30
10992;BME280;5549;47.028;15.514;2023-12-28T11:39:32;96864.72;;;18.67;33.74
10992;BME280;5549;47.028;15.514;2023-12-28T11:42:05;96859.34;;;18.83;32.75
10992;BME280;5549;47.028;15.514;2023-12-28T11:44:39;96852.59;;;19.12;33.77
10992;BME280;5549;47.028;15.514;2023-12-28T11:47:11;96854.91;;;19.38;32.91
10992;BME280;5549;47.028;15.514;2023-12-28T11:49:42;96848.34;;;19.48;32.65
10992;BME280;5549;47.028;15.514;2023-12-28T11:52:23;96853.00;;;19.54;32.81
10992;BME280;5549;47.028;15.514;2023-12-28T11:54:51;96845.09;;;19.84;32.96
10992;BME280;5549;47.028;15.514;2023-12-28T11:57:20;96838.81;;;20.14;32.06
10992;BME280;5549;47.028;15.514;2023-12-28T11:59:53;96831.94;;;20.35;31.90
10992;BME280;5549;47.028;15.514;2023-12-28T12:02:22;96826.00;;;20.62;31.72
10992;BME280;5549;47.028;15.514;2023-12-28T12:04:50;96827.84;;;20.62;31.55
10992;BME280;5549;47.028;15.514;2023-12-28T12:07:18;96820.19;;;20.73;30.99
10992;BME280;5549;47.028;15.514;2023-12-28T12:09:45;96821.31;;;20.64;30.94
10992;BME280;5549;47.028;15.514;2023-12-28T12:12:15;96818.09;;;19.87;31.08
10992;BME280;5549;47.028;15.514;2023-12-28T12:14:44;96814.88;;;19.92;31.89
10992;BME280;5549;47.028;15.514;2023-12-28T12:17:12;96829.78;;;20.01;31.64
10992;BME280;5549;47.028;15.514;2023-12-28T12:19:40;96833.94;;;20.03;32.04
10992;BME280;5549;47.028;15.514;2023-12-28T12:22:07;96831.75;;;20.22;31.83
10992;BME280;5549;47.028;15.514;2023-12-28T12:24:36;96832.59;;;20.37;32.09
10992;BME280;5549;47.028;15.514;2023-12-28T12:27:04;96839.63;;;20.53;31.79
10992;BME280;5549;47.028;15.514;2023-12-28T12:29:31;96848.19;;;20.48;32.37
10992;BME280;5549;47.028;15.514;2023-12-28T12:32:01;96847.16;;;20.49;32.44
10992;BME280;5549;47.028;15.514;2023-12-28T12:34:30;96843.38;;;20.58;32.74
10992;BME280;5549;47.028;15.514;2023-12-28T12:36:57;96840.91;;;20.57;32.91
10992;BME280;5549;47.028;15.514;2023-12-28T12:39:26;96839.91;;;20.43;32.44
10992;BME280;5549;47.028;15.514;2023-12-28T12:41:54;96841.03;;;20.26;31.99
10992;BME280;5549;47.028;15.514;2023-12-28T12:44:23;96840.28;;;19.65;32.70
10992;BME280;5549;47.028;15.514;2023-12-28T12:46:57;96831.63;;;19.63;33.32
10992;BME280;5549;47.028;15.514;2023-12-28T12:49:27;96830.53;;;19.49;33.42
10992;BME280;5549;47.028;15.514;2023-12-28T12:51:55;96840.28;;;19.11;33.50
10992;BME280;5549;47.028;15.514;2023-12-28T12:54:23;96849.97;;;18.96;33.45
10992;BME280;5549;47.028;15.514;2023-12-28T12:56:51;96852.44;;;18.66;34.37
10992;BME280;5549;47.028;15.514;2023-12-28T12:59:18;96856.06;;;18.73;34.81
10992;BME280;5549;47.028;15.514;2023-12-28T13:01:46;96867.38;;;18.67;34.49
10992;BME280;5549;47.028;15.514;2023-12-28T13:04:16;96866.28;;;18.37;34.26
10992;BME280;5549;47.028;15.514;2023-12-28T13:06:48;96870.63;;;18.22;34.57
10992;BME280;5549;47.028;15.514;2023-12-28T13:09:15;96863.47;;;18.31;34.33
10992;BME280;5549;47.028;15.514;2023-12-28T13:11:43;96866.78;;;18.33;34.79
10992;BME280;5549;47.028;15.514;2023-12-28T13:14:12;96861.63;;;18.39;35.28